sensor_id;sensor_type;location;lat;lon;timestamp;temperature;humidity
11239;DHT22;5677;48.488;13.436;2023-09-19T00:02:21;21.20;65.90
11239;DHT22;5677;48.488;13.436;2023-09-19T00:04:48;21.20;65.90
11239;DHT22;5677;48.488;13.436;2023-09-19T00:07:15;21.20;65.90
11239;DHT22;5677;48.488;13.436;2023-09-19T00:09:42;21.20;65.90
11239;DHT22;5677;48.488;13.436;2023-09-19T00:12:09;21.20;65.90
11239;DHT22;5677;48.488;13.436;2023-09-19T00:14:38;21.20;65.80
11239;DHT22;5677;48.488;13.436;2023-09-19T00:17:05;21.20;65.90
11239;DHT22;5677;48.488;13.436;2023-09-19T00:19:36;21.20;65.80
11239;DHT22;5677;48.488;13.436;2023-09-19T00:22:03;21.20;65.90
11239;DHT22;5677;48.488;13.436;2023-09-19T00:24:30;21.20;65.80
11239;DHT22;5677;48.488;13.436;2023-09-19T00:26:57;21.20;65.90
11239;DHT22;5677;48.488;13.436;2023-09-19T00:29:25;21.20;65.80
11239;DHT22;5677;48.488;13.436;2023-09-19T00:31:54;21.20;65.90
11239;DHT22;5677;48.488;13.436;2023-09-19T00:34:21;21.20;65.80
11239;DHT22;5677;48.488;13.436;2023-09-19T00:36:50;21.20;65.90
11239;DHT22;5677;48.488;13.436;2023-09-19T00:39:18;21.20;65.90
11239;DHT22;5677;48.488;13.436;2023-09-19T00:41:45;21.20;65.90
11239;DHT22;5677;48.488;13.436;2023-09-19T00:44:13;21.20;65.80
11239;DHT22;5677;48.488;13.436;2023-09-19T00:46:41;21.20;65.80
11239;DHT22;5677;48.488;13.436;2023-09-19T00:49:08;21.20;65.70
11239;DHT22;5677;48.488;13.436;2023-09-19T00:51:36;21.20;65.70
11239;DHT22;5677;48.488;13.436;2023-09-19T00:54:05;21.20;65.70
11239;DHT22;5677;48.488;13.436;2023-09-19T00:56:32;21.20;65.70
11239;DHT22;5677;48.488;13.436;2023-09-19T00:58:59;21.20;65.80
11239;DHT22;5677;48.488;13.436;2023-09-19T01:01:27;21.20;65.80
11239;DHT22;5677;48.488;13.436;2023-09-19T01:03:53;21.20;65.80
11239;DHT22;5677;48.488;13.436;2023-09-19T01:06:20;21.20;65.80
11239;DHT22;5677;48.488;13.436;2023-09-19T01:08:47;21.20;65.70
11239;DHT22;5677;48.488;13.436;2023-09-19T01:11:21;21.20;65.70
11239;DHT22;5677;48.488;13.436;2023-09-19T01:13:58;21.20;65.70
11239;DHT22;5677;48.488;13.436;2023-09-19T01:16:32;21.20;65.70
11239;DHT22;5677;48.488;13.436;2023-09-19T01:19:22;21.20;65.80
11239;DHT22;5677;48.488;13.436;2023-09-19T01:22:00;21.20;65.80
11239;DHT22;5677;48.488;13.436;2023-09-19T01:25:02;21.20;65.80
11239;DHT22;5677;48.488;13.436;2023-09-19T01:28:02;21.20;65.70
11239;DHT22;5677;48.488;13.436;2023-09-19T01:30:36;21.20;65.70
11239;DHT22;5677;48.488;13.436;2023-09-19T01:33:06;21.20;65.70
11239;DHT22;5677;48.488;13.436;2023-09-19T01:35:33;21.20;65.70
11239;DHT22;5677;48.488;13.436;2023-09-19T01:38:04;21.20;65.70
11239;DHT22;5677;48.488;13.436;2023-09-19T01:40:36;21.10;65.80
11239;DHT22;5677;48.488;13.436;2023-09-19T01:43:11;21.10;65.70
11239;DHT22;5677;48.488;13.436;2023-09-19T01:45:52;21.20;65.70
11239;DHT22;5677;48.488;13.436;2023-09-19T01:48:33;21.10;65.70
11239;DHT22;5677;48.488;13.436;2023-09-19T01:51:05;21.10;65.70
11239;DHT22;5677;48.488;13.436;2023-09-19T01:53:35;21.10;65.70
11239;DHT22;5677;48.488;13.436;2023-09-19T01:56:05;21.10;65.70
11239;DHT22;5677;48.488;13.436;2023-09-19T01:58:41;21.10;66.50
11239;DHT22;5677;48.488;13.436;2023-09-19T02:01:12;21.10;65.70
11239;DHT22;5677;48.488;13.436;2023-09-19T02:03:41;21.10;65.70
11239;DHT22;5677;48.488;13.436;2023-09-19T02:06:13;21.10;65.70
11239;DHT22;5677;48.488;13.436;2023-09-19T02:08:41;21.10;65.70
11239;DHT22;5677;48.488;13.436;2023-09-19T02:11:08;21.10;65.70
11239;DHT22;5677;48.488;13.436;2023-09-19T02:13:34;21.10;65.70
11239;DHT22;5677;48.488;13.436;2023-09-19T02:16:01;21.10;65.70
11239;DHT22;5677;48.488;13.436;2023-09-19T02:18:31;21.10;65.70
11239;DHT22;5677;48.488;13.436;2023-09-19T02:21:00;21.10;65.70
11239;DHT22;5677;48.488;13.436;2023-09-19T02:23:27;21.10;65.60
11239;DHT22;5677;48.488;13.436;2023-09-19T02:25:55;21.10;65.60
11239;DHT22;5677;48.488;13.436;2023-09-19T02:28:23;21.10;65.70
11239;DHT22;5677;48.488;13.436;2023-09-19T02:30:55;21.10;65.60
11239;DHT22;5677;48.488;13.436;2023-09-19T02:33:22;21.10;65.60
11239;DHT22;5677;48.488;13.436;2023-09-19T02:35:54;21.10;65.60
11239;DHT22;5677;48.488;13.436;2023-09-19T02:38:23;21.10;65.60
11239;DHT22;5677;48.488;13.436;2023-09-19T02:40:50;21.10;65.60
11239;DHT22;5677;48.488;13.436;2023-09-19T02:43:17;21.10;65.70
11239;DHT22;5677;48.488;13.436;2023-09-19T02:45:45;21.10;65.60
11239;DHT22;5677;48.488;13.436;2023-09-19T02:48:12;21.10;65.60
11239;DHT22;5677;48.488;13.436;2023-09-19T02:50:39;21.10;65.60
11239;DHT22;5677;48.488;13.436;2023-09-19T02:53:07;21.10;65.60
11239;DHT22;5677;48.488;13.436;2023-09-19T02:55:35;21.10;65.60
11239;DHT22;5677;48.488;13.436;2023-09-19T02:58:03;21.10;65.90
11239;DHT22;5677;48.488;13.436;2023-09-19T03:00:33;21.10;65.60
11239;DHT22;5677;48.488;13.436;2023-09-19T03:03:01;21.10;65.60
11239;DHT22;5677;48.488;13.436;2023-09-19T03:05:29;21.10;65.70
11239;DHT22;5677;48.488;13.436;2023-09-19T03:07:57;21.10;65.60
11239;DHT22;5677;48.488;13.436;2023-09-19T03:10:27;21.10;65.60
11239;DHT22;5677;48.488;13.436;2023-09-19T03:12:55;21.10;65.70
11239;DHT22;5677;48.488;13.436;2023-09-19T03:15:21;21.10;65.70
11239;DHT22;5677;48.488;13.436;2023-09-19T03:17:49;21.10;65.60
11239;DHT22;5677;48.488;13.436;2023-09-19T03:20:17;21.10;65.60
11239;DHT22;5677;48.488;13.436;2023-09-19T03:22:44;21.10;65.70
11239;DHT22;5677;48.488;13.436;2023-09-19T03:25:11;21.10;65.70
11239;DHT22;5677;48.488;13.436;2023-09-19T03:27:41;21.10;65.80
11239;DHT22;5677;48.488;13.436;2023-09-19T03:30:08;21.10;65.80
11239;DHT22;5677;48.488;13.436;2023-09-19T03:32:44;21.10;65.70
11239;DHT22;5677;48.488;13.436;2023-09-19T03:35:10;21.10;65.80
11239;DHT22;5677;48.488;13.436;2023-09-19T03:37:39;21.10;65.80
11239;DHT22;5677;48.488;13.436;2023-09-19T03:40:07;21.10;65.90
11239;DHT22;5677;48.488;13.436;2023-09-19T03:42:38;21.10;65.90
11239;DHT22;5677;48.488;13.436;2023-09-19T03:45:06;21.10;65.90
11239;DHT22;5677;48.488;13.436;2023-09-19T03:47:37;21.10;65.90
11239;DHT22;5677;48.488;13.436;2023-09-19T03:50:05;21.10;65.90
11239;DHT22;5677;48.488;13.436;2023-09-19T03:52:34;21.10;66.00
11239;DHT22;5677;48.488;13.436;2023-09-19T03:55:00;21.10;66.00
11239;DHT22;5677;48.488;13.436;2023-09-19T03:57:30;21.10;66.00
11239;DHT22;5677;48.488;13.436;2023-09-19T03:59:57;21.10;66.00
11239;DHT22;5677;48.488;13.436;2023-09-19T04:02:25;21.10;66.00
11239;DHT22;5677;48.488;13.436;2023-09-19T04:04:58;21.00;65.80
11239;DHT22;5677;48.488;13.436;2023-09-19T04:07:25;21.00;65.90
11239;DHT22;5677;48.488;13.436;2023-09-19T04:09:54;21.10;66.00
11239;DHT22;5677;48.488;13.436;2023-09-19T04:12:21;21.00;65.90
11239;DHT22;5677;48.488;13.436;2023-09-19T04:14:47;21.00;65.90
11239;DHT22;5677;48.488;13.436;2023-09-19T04:17:15;21.00;65.90
11239;DHT22;5677;48.488;13.436;2023-09-19T04:19:43;21.00;65.90
11239;DHT22;5677;48.488;13.436;2023-09-19T04:22:11;21.00;65.90
11239;DHT22;5677;48.488;13.436;2023-09-19T04:24:38;21.00;66.90
11239;DHT22;5677;48.488;13.436;2023-09-19T04:27:05;21.00;65.90
11239;DHT22;5677;48.488;13.436;2023-09-19T04:29:32;21.00;65.90
11239;DHT22;5677;48.488;13.436;2023-09-19T04:31:59;21.00;65.90
11239;DHT22;5677;48.488;13.436;2023-09-19T04:34:26;21.00;65.90
11239;DHT22;5677;48.488;13.436;2023-09-19T04:36:54;21.00;66.00
11239;DHT22;5677;48.488;13.436;2023-09-19T04:39:23;21.00;66.00
11239;DHT22;5677;48.488;13.436;2023-09-19T04:41:51;21.00;66.00
11239;DHT22;5677;48.488;13.436;2023-09-19T04:44:18;21.00;66.00
11239;DHT22;5677;48.488;13.436;2023-09-19T04:46:46;21.00;66.00
11239;DHT22;5677;48.488;13.436;2023-09-19T04:49:13;21.00;66.00
11239;DHT22;5677;48.488;13.436;2023-09-19T04:51:40;21.00;65.90
11239;DHT22;5677;48.488;13.436;2023-09-19T04:54:09;21.00;66.00
11239;DHT22;5677;48.488;13.436;2023-09-19T04:56:36;21.00;66.00
11239;DHT22;5677;48.488;13.436;2023-09-19T04:59:06;21.00;66.00
11239;DHT22;5677;48.488;13.436;2023-09-19T05:01:32;21.00;66.00
11239;DHT22;5677;48.488;13.436;2023-09-19T05:03:59;21.00;66.00
11239;DHT22;5677;48.488;13.436;2023-09-19T05:06:26;21.00;66.00
11239;DHT22;5677;48.488;13.436;2023-09-19T05:08:53;21.00;66.10
11239;DHT22;5677;48.488;13.436;2023-09-19T05:11:21;21.00;66.00
11239;DHT22;5677;48.488;13.436;2023-09-19T05:13:48;21.00;66.00
11239;DHT22;5677;48.488;13.436;2023-09-19T05:16:16;21.00;66.10
11239;DHT22;5677;48.488;13.436;2023-09-19T05:18:43;21.00;66.10
11239;DHT22;5677;48.488;13.436;2023-09-19T05:21:10;21.00;66.10
11239;DHT22;5677;48.488;13.436;2023-09-19T05:23:37;21.00;66.10
11239;DHT22;5677;48.488;13.436;2023-09-19T05:26:04;21.00;66.10
11239;DHT22;5677;48.488;13.436;2023-09-19T05:28:32;21.00;66.10
11239;DHT22;5677;48.488;13.436;2023-09-19T05:31:00;21.00;66.10
11239;DHT22;5677;48.488;13.436;2023-09-19T05:33:27;21.00;66.10
11239;DHT22;5677;48.488;13.436;2023-09-19T05:35:57;21.00;66.10
11239;DHT22;5677;48.488;13.436;2023-09-19T05:38:24;21.00;66.10
11239;DHT22;5677;48.488;13.436;2023-09-19T05:40:52;21.00;66.10
11239;DHT22;5677;48.488;13.436;2023-09-19T05:43:19;21.00;66.10
11239;DHT22;5677;48.488;13.436;2023-09-19T05:45:47;21.00;66.20
11239;DHT22;5677;48.488;13.436;2023-09-19T05:48:17;21.00;66.10
11239;DHT22;5677;48.488;13.436;2023-09-19T05:50:46;21.00;66.10
11239;DHT22;5677;48.488;13.436;2023-09-19T05:53:14;21.00;66.00
11239;DHT22;5677;48.488;13.436;2023-09-19T05:55:41;21.00;66.10
11239;DHT22;5677;48.488;13.436;2023-09-19T05:58:08;21.00;66.10
11239;DHT22;5677;48.488;13.436;2023-09-19T06:00:35;21.00;66.00
11239;DHT22;5677;48.488;13.436;2023-09-19T06:03:04;21.00;66.00
11239;DHT22;5677;48.488;13.436;2023-09-19T06:05:31;21.00;66.00
11239;DHT22;5677;48.488;13.436;2023-09-19T06:07:58;21.00;65.50
11239;DHT22;5677;48.488;13.436;2023-09-19T06:10:25;20.90;64.90
11239;DHT22;5677;48.488;13.436;2023-09-19T06:12:53;20.90;64.50
11239;DHT22;5677;48.488;13.436;2023-09-19T06:15:21;20.80;64.40
11239;DHT22;5677;48.488;13.436;2023-09-19T06:17:49;20.80;64.60
11239;DHT22;5677;48.488;13.436;2023-09-19T06:20:18;20.80;64.70
11239;DHT22;5677;48.488;13.436;2023-09-19T06:22:45;20.70;64.90
11239;DHT22;5677;48.488;13.436;2023-09-19T06:25:13;20.70;65.10
11239;DHT22;5677;48.488;13.436;2023-09-19T06:27:45;20.70;65.40
11239;DHT22;5677;48.488;13.436;2023-09-19T06:33:22;20.70;65.80
11239;DHT22;5677;48.488;13.436;2023-09-19T06:35:50;20.60;65.80
11239;DHT22;5677;48.488;13.436;2023-09-19T06:38:24;20.60;66.10
11239;DHT22;5677;48.488;13.436;2023-09-19T06:40:51;20.70;66.30
11239;DHT22;5677;48.488;13.436;2023-09-19T06:43:18;20.70;66.30
11239;DHT22;5677;48.488;13.436;2023-09-19T06:45:45;20.70;66.10
11239;DHT22;5677;48.488;13.436;2023-09-19T06:48:12;20.70;65.30
11239;DHT22;5677;48.488;13.436;2023-09-19T06:50:39;20.60;65.30
11239;DHT22;5677;48.488;13.436;2023-09-19T06:53:08;20.60;64.80
11239;DHT22;5677;48.488;13.436;2023-09-19T06:55:35;20.60;65.30
11239;DHT22;5677;48.488;13.436;2023-09-19T06:58:02;20.60;65.30
11239;DHT22;5677;48.488;13.436;2023-09-19T07:00:31;20.60;65.40
11239;DHT22;5677;48.488;13.436;2023-09-19T07:03:03;20.60;65.40
11239;DHT22;5677;48.488;13.436;2023-09-19T07:05:34;20.60;65.20
11239;DHT22;5677;48.488;13.436;2023-09-19T07:08:03;20.60;65.70
11239;DHT22;5677;48.488;13.436;2023-09-19T07:10:33;20.60;66.00
11239;DHT22;5677;48.488;13.436;2023-09-19T07:13:01;20.50;66.50
11239;DHT22;5677;48.488;13.436;2023-09-19T07:15:31;20.50;66.80
11239;DHT22;5677;48.488;13.436;2023-09-19T07:17:59;20.50;66.40
11239;DHT22;5677;48.488;13.436;2023-09-19T07:20:26;20.50;65.90
11239;DHT22;5677;48.488;13.436;2023-09-19T07:22:57;20.40;65.80
11239;DHT22;5677;48.488;13.436;2023-09-19T07:25:25;20.40;65.60
11239;DHT22;5677;48.488;13.436;2023-09-19T07:27:55;20.40;65.50
11239;DHT22;5677;48.488;13.436;2023-09-19T07:30:21;20.40;65.40
11239;DHT22;5677;48.488;13.436;2023-09-19T07:32:48;20.40;65.40
11239;DHT22;5677;48.488;13.436;2023-09-19T07:35:15;20.40;65.60
11239;DHT22;5677;48.488;13.436;2023-09-19T07:37:44;20.40;65.60
11239;DHT22;5677;48.488;13.436;2023-09-19T07:40:15;20.40;65.70
11239;DHT22;5677;48.488;13.436;2023-09-19T07:42:41;20.40;66.00
11239;DHT22;5677;48.488;13.436;2023-09-19T07:45:11;20.40;65.70
11239;DHT22;5677;48.488;13.436;2023-09-19T07:47:40;20.30;65.30
11239;DHT22;5677;48.488;13.436;2023-09-19T07:50:07;20.30;65.20
11239;DHT22;5677;48.488;13.436;2023-09-19T07:52:35;20.30;65.40
11239;DHT22;5677;48.488;13.436;2023-09-19T07:55:02;20.30;65.20
11239;DHT22;5677;48.488;13.436;2023-09-19T07:57:34;20.30;65.10
11239;DHT22;5677;48.488;13.436;2023-09-19T08:00:01;20.40;65.10
11239;DHT22;5677;48.488;13.436;2023-09-19T08:02:34;20.30;64.60
11239;DHT22;5677;48.488;13.436;2023-09-19T08:05:01;20.30;64.60
11239;DHT22;5677;48.488;13.436;2023-09-19T08:07:31;20.30;65.40
11239;DHT22;5677;48.488;13.436;2023-09-19T08:09:58;20.30;65.50
11239;DHT22;5677;48.488;13.436;2023-09-19T08:12:25;20.30;65.60
11239;DHT22;5677;48.488;13.436;2023-09-19T08:14:52;20.40;65.70
11239;DHT22;5677;48.488;13.436;2023-09-19T08:17:20;20.30;65.80
11239;DHT22;5677;48.488;13.436;2023-09-19T08:19:49;20.40;66.00
11239;DHT22;5677;48.488;13.436;2023-09-19T08:22:18;20.40;65.90
11239;DHT22;5677;48.488;13.436;2023-09-19T08:24:45;20.40;65.70
11239;DHT22;5677;48.488;13.436;2023-09-19T08:27:13;20.40;65.90
11239;DHT22;5677;48.488;13.436;2023-09-19T08:29:40;20.40;65.80
11239;DHT22;5677;48.488;13.436;2023-09-19T08:32:07;20.40;65.90
11239;DHT22;5677;48.488;13.436;2023-09-19T08:34:34;20.40;65.90
11239;DHT22;5677;48.488;13.436;2023-09-19T08:37:05;20.30;66.00
11239;DHT22;5677;48.488;13.436;2023-09-19T08:39:32;20.30;66.10
11239;DHT22;5677;48.488;13.436;2023-09-19T08:42:02;20.40;66.10
11239;DHT22;5677;48.488;13.436;2023-09-19T08:44:30;20.40;66.10
11239;DHT22;5677;48.488;13.436;2023-09-19T08:47:03;20.40;66.00
11239;DHT22;5677;48.488;13.436;2023-09-19T08:49:36;20.50;66.00
11239;DHT22;5677;48.488;13.436;2023-09-19T08:52:12;20.50;65.90
11239;DHT22;5677;48.488;13.436;2023-09-19T08:54:44;20.60;65.80
11239;DHT22;5677;48.488;13.436;2023-09-19T08:57:12;20.60;65.60
11239;DHT22;5677;48.488;13.436;2023-09-19T08:59:47;20.60;65.50
11239;DHT22;5677;48.488;13.436;2023-09-19T09:02:16;20.60;65.40
11239;DHT22;5677;48.488;13.436;2023-09-19T09:04:45;20.70;65.50
11239;DHT22;5677;48.488;13.436;2023-09-19T09:07:14;20.70;65.30
11239;DHT22;5677;48.488;13.436;2023-09-19T09:09:42;20.70;65.30
11239;DHT22;5677;48.488;13.436;2023-09-19T09:12:11;20.70;65.20
11239;DHT22;5677;48.488;13.436;2023-09-19T09:14:39;20.70;65.00
11239;DHT22;5677;48.488;13.436;2023-09-19T09:17:06;20.70;65.70
11239;DHT22;5677;48.488;13.436;2023-09-19T09:19:33;20.80;65.80
11239;DHT22;5677;48.488;13.436;2023-09-19T09:22:07;20.70;66.30
11239;DHT22;5677;48.488;13.436;2023-09-19T09:24:36;20.70;65.30
11239;DHT22;5677;48.488;13.436;2023-09-19T09:27:05;20.80;65.50
11239;DHT22;5677;48.488;13.436;2023-09-19T09:29:42;20.80;65.20
11239;DHT22;5677;48.488;13.436;2023-09-19T09:32:19;20.80;64.80
11239;DHT22;5677;48.488;13.436;2023-09-19T09:34:48;20.80;64.60
11239;DHT22;5677;48.488;13.436;2023-09-19T09:37:15;20.80;64.40
11239;DHT22;5677;48.488;13.436;2023-09-19T09:39:51;20.90;64.40
11239;DHT22;5677;48.488;13.436;2023-09-19T09:42:34;20.90;63.90
11239;DHT22;5677;48.488;13.436;2023-09-19T09:45:18;20.80;62.60
11239;DHT22;5677;48.488;13.436;2023-09-19T09:47:53;20.80;62.00
11239;DHT22;5677;48.488;13.436;2023-09-19T09:50:28;20.80;62.20
11239;DHT22;5677;48.488;13.436;2023-09-19T09:53:19;20.80;62.50
11239;DHT22;5677;48.488;13.436;2023-09-19T09:56:04;20.80;62.70
11239;DHT22;5677;48.488;13.436;2023-09-19T09:58:35;20.80;62.80
11239;DHT22;5677;48.488;13.436;2023-09-19T10:01:04;20.80;63.30
11239;DHT22;5677;48.488;13.436;2023-09-19T10:03:38;20.80;63.60
11239;DHT22;5677;48.488;13.436;2023-09-19T10:06:10;20.80;63.70
11239;DHT22;5677;48.488;13.436;2023-09-19T10:09:00;20.80;63.70
11239;DHT22;5677;48.488;13.436;2023-09-19T10:11:41;20.80;63.70
11239;DHT22;5677;48.488;13.436;2023-09-19T10:14:11;20.80;63.50
11239;DHT22;5677;48.488;13.436;2023-09-19T10:16:40;20.90;63.70
11239;DHT22;5677;48.488;13.436;2023-09-19T10:19:10;20.90;63.60
11239;DHT22;5677;48.488;13.436;2023-09-19T10:21:39;20.90;63.60
11239;DHT22;5677;48.488;13.436;2023-09-19T10:24:07;20.90;63.70
11239;DHT22;5677;48.488;13.436;2023-09-19T10:26:37;21.00;63.60
11239;DHT22;5677;48.488;13.436;2023-09-19T10:29:09;21.00;63.60
11239;DHT22;5677;48.488;13.436;2023-09-19T10:31:38;21.00;63.60
11239;DHT22;5677;48.488;13.436;2023-09-19T10:34:08;21.00;63.60
11239;DHT22;5677;48.488;13.436;2023-09-19T10:36:36;21.00;63.60
11239;DHT22;5677;48.488;13.436;2023-09-19T10:39:05;21.10;63.70
11239;DHT22;5677;48.488;13.436;2023-09-19T10:41:34;21.00;63.50
11239;DHT22;5677;48.488;13.436;2023-09-19T10:44:04;21.10;63.70
11239;DHT22;5677;48.488;13.436;2023-09-19T10:46:32;21.10;63.70
11239;DHT22;5677;48.488;13.436;2023-09-19T10:48:59;21.10;63.70
11239;DHT22;5677;48.488;13.436;2023-09-19T10:51:30;21.10;63.70
11239;DHT22;5677;48.488;13.436;2023-09-19T10:54:04;21.10;63.70
11239;DHT22;5677;48.488;13.436;2023-09-19T10:56:35;21.00;63.60
11239;DHT22;5677;48.488;13.436;2023-09-19T10:59:09;21.10;63.70
11239;DHT22;5677;48.488;13.436;2023-09-19T11:01:42;21.10;63.70
11239;DHT22;5677;48.488;13.436;2023-09-19T11:04:23;21.00;63.70
11239;DHT22;5677;48.488;13.436;2023-09-19T11:07:03;21.10;63.70
11239;DHT22;5677;48.488;13.436;2023-09-19T11:09:47;21.10;63.80
11239;DHT22;5677;48.488;13.436;2023-09-19T11:21:52;21.10;63.70
11239;DHT22;5677;48.488;13.436;2023-09-19T11:24:31;21.10;63.70
11239;DHT22;5677;48.488;13.436;2023-09-19T11:27:12;21.10;63.70
11239;DHT22;5677;48.488;13.436;2023-09-19T11:29:40;21.10;63.80
11239;DHT22;5677;48.488;13.436;2023-09-19T11:32:07;21.10;63.80
11239;DHT22;5677;48.488;13.436;2023-09-19T11:34:39;21.10;63.80
11239;DHT22;5677;48.488;13.436;2023-09-19T11:40:08;21.10;63.90
11239;DHT22;5677;48.488;13.436;2023-09-19T11:42:42;21.20;63.90
11239;DHT22;5677;48.488;13.436;2023-09-19T11:48:12;21.20;63.90
11239;DHT22;5677;48.488;13.436;2023-09-19T11:50:41;21.20;63.90
11239;DHT22;5677;48.488;13.436;2023-09-19T11:53:10;21.20;63.90
11239;DHT22;5677;48.488;13.436;2023-09-19T11:55:39;21.20;64.00
11239;DHT22;5677;48.488;13.436;2023-09-19T11:58:06;21.20;63.90
11239;DHT22;5677;48.488;13.436;2023-09-19T12:00:34;21.20;63.90
11239;DHT22;5677;48.488;13.436;2023-09-19T12:03:07;21.20;64.00
11239;DHT22;5677;48.488;13.436;2023-09-19T12:05:34;21.20;64.80
11239;DHT22;5677;48.488;13.436;2023-09-19T12:08:03;21.20;64.00
11239;DHT22;5677;48.488;13.436;2023-09-19T12:10:32;21.20;64.00
11239;DHT22;5677;48.488;13.436;2023-09-19T12:13:01;21.20;64.00
11239;DHT22;5677;48.488;13.436;2023-09-19T12:15:28;21.20;64.00
11239;DHT22;5677;48.488;13.436;2023-09-19T12:18:00;21.20;64.00
11239;DHT22;5677;48.488;13.436;2023-09-19T12:20:42;21.10;64.10
11239;DHT22;5677;48.488;13.436;2023-09-19T12:23:13;21.10;64.10
11239;DHT22;5677;48.488;13.436;2023-09-19T12:25:42;21.20;63.30
11239;DHT22;5677;48.488;13.436;2023-09-19T12:28:13;21.10;63.40
11239;DHT22;5677;48.488;13.436;2023-09-19T12:30:42;21.10;63.80
11239;DHT22;5677;48.488;13.436;2023-09-19T12:33:16;21.10;64.00
11239;DHT22;5677;48.488;13.436;2023-09-19T12:35:44;21.10;64.10
11239;DHT22;5677;48.488;13.436;2023-09-19T12:38:13;21.10;64.10
11239;DHT22;5677;48.488;13.436;2023-09-19T12:40:50;21.10;64.20
11239;DHT22;5677;48.488;13.436;2023-09-19T12:43:18;21.10;64.30
11239;DHT22;5677;48.488;13.436;2023-09-19T12:45:45;21.10;64.30
11239;DHT22;5677;48.488;13.436;2023-09-19T12:48:23;21.10;64.40
11239;DHT22;5677;48.488;13.436;2023-09-19T12:51:04;21.10;64.40
11239;DHT22;5677;48.488;13.436;2023-09-19T12:53:33;21.10;64.50
11239;DHT22;5677;48.488;13.436;2023-09-19T12:56:03;21.10;64.50
11239;DHT22;5677;48.488;13.436;2023-09-19T12:58:34;21.10;64.50
11239;DHT22;5677;48.488;13.436;2023-09-19T13:01:14;21.10;64.50
11239;DHT22;5677;48.488;13.436;2023-09-19T13:03:41;21.10;64.60
11239;DHT22;5677;48.488;13.436;2023-09-19T13:06:08;21.00;64.50
11239;DHT22;5677;48.488;13.436;2023-09-19T13:08:36;21.10;64.60
11239;DHT22;5677;48.488;13.436;2023-09-19T13:11:06;21.10;64.60
11239;DHT22;5677;48.488;13.436;2023-09-19T13:13:37;21.10;64.60
11239;DHT22;5677;48.488;13.436;2023-09-19T13:16:04;21.10;64.60
11239;DHT22;5677;48.488;13.436;2023-09-19T13:18:42;21.10;64.50
11239;DHT22;5677;48.488;13.436;2023-09-19T13:21:11;21.10;64.60
11239;DHT22;5677;48.488;13.436;2023-09-19T13:23:41;21.10;64.60
11239;DHT22;5677;48.488;13.436;2023-09-19T13:26:09;21.10;64.60
11239;DHT22;5677;48.488;13.436;2023-09-19T13:28:37;21.10;64.60
11239;DHT22;5677;48.488;13.436;2023-09-19T13:31:04;21.10;64.60
11239;DHT22;5677;48.488;13.436;2023-09-19T13:33:32;21.10;64.70
11239;DHT22;5677;48.488;13.436;2023-09-19T13:35:59;21.10;64.60
11239;DHT22;5677;48.488;13.436;2023-09-19T13:38:25;21.10;64.60
11239;DHT22;5677;48.488;13.436;2023-09-19T13:40:52;21.10;64.70
11239;DHT22;5677;48.488;13.436;2023-09-19T13:43:19;21.10;64.80
11239;DHT22;5677;48.488;13.436;2023-09-19T13:45:48;21.10;64.90
11239;DHT22;5677;48.488;13.436;2023-09-19T13:48:15;21.10;64.90
11239;DHT22;5677;48.488;13.436;2023-09-19T13:50:48;21.10;64.90
11239;DHT22;5677;48.488;13.436;2023-09-19T13:53:16;21.10;64.90
11239;DHT22;5677;48.488;13.436;2023-09-19T13:55:43;21.00;64.70
11239;DHT22;5677;48.488;13.436;2023-09-19T13:58:10;21.00;64.50
11239;DHT22;5677;48.488;13.436;2023-09-19T14:00:38;21.00;64.50
11239;DHT22;5677;48.488;13.436;2023-09-19T14:03:06;21.00;64.50
11239;DHT22;5677;48.488;13.436;2023-09-19T14:05:33;21.00;64.50
11239;DHT22;5677;48.488;13.436;2023-09-19T14:07:59;21.00;64.50
11239;DHT22;5677;48.488;13.436;2023-09-19T14:10:28;21.00;64.50
11239;DHT22;5677;48.488;13.436;2023-09-19T14:12:56;21.00;64.50
11239;DHT22;5677;48.488;13.436;2023-09-19T14:15:25;21.00;64.40
11239;DHT22;5677;48.488;13.436;2023-09-19T14:17:55;21.00;64.40
11239;DHT22;5677;48.488;13.436;2023-09-19T14:20:23;21.00;64.40
11239;DHT22;5677;48.488;13.436;2023-09-19T14:22:52;21.00;64.30
11239;DHT22;5677;48.488;13.436;2023-09-19T14:25:18;21.00;64.30
11239;DHT22;5677;48.488;13.436;2023-09-19T14:27:46;21.00;64.20
11239;DHT22;5677;48.488;13.436;2023-09-19T14:30:14;21.00;64.20
11239;DHT22;5677;48.488;13.436;2023-09-19T14:32:41;21.00;64.20
11239;DHT22;5677;48.488;13.436;2023-09-19T14:35:08;21.00;64.10
11239;DHT22;5677;48.488;13.436;2023-09-19T14:37:37;21.00;64.10
11239;DHT22;5677;48.488;13.436;2023-09-19T14:40:06;21.00;64.10
11239;DHT22;5677;48.488;13.436;2023-09-19T14:42:35;21.00;64.10
11239;DHT22;5677;48.488;13.436;2023-09-19T14:45:04;21.00;63.80
11239;DHT22;5677;48.488;13.436;2023-09-19T14:47:31;21.00;63.40
11239;DHT22;5677;48.488;13.436;2023-09-19T14:49:59;21.00;63.60
11239;DHT22;5677;48.488;13.436;2023-09-19T14:52:26;21.00;63.80
11239;DHT22;5677;48.488;13.436;2023-09-19T14:54:55;21.00;63.70
11239;DHT22;5677;48.488;13.436;2023-09-19T14:57:22;21.00;63.80
11239;DHT22;5677;48.488;13.436;2023-09-19T14:59:50;21.00;63.70
11239;DHT22;5677;48.488;13.436;2023-09-19T15:02:17;20.90;63.60
11239;DHT22;5677;48.488;13.436;2023-09-19T15:04:44;20.90;63.20
11239;DHT22;5677;48.488;13.436;2023-09-19T15:07:12;20.90;63.20
11239;DHT22;5677;48.488;13.436;2023-09-19T15:09:40;20.90;62.70
11239;DHT22;5677;48.488;13.436;2023-09-19T15:12:08;20.90;62.80
11239;DHT22;5677;48.488;13.436;2023-09-19T15:14:35;20.90;62.50
11239;DHT22;5677;48.488;13.436;2023-09-19T15:17:03;20.90;62.60
11239;DHT22;5677;48.488;13.436;2023-09-19T15:19:30;20.90;63.00
11239;DHT22;5677;48.488;13.436;2023-09-19T15:21:57;20.90;63.00
11239;DHT22;5677;48.488;13.436;2023-09-19T15:24:24;20.90;63.00
11239;DHT22;5677;48.488;13.436;2023-09-19T15:26:52;20.90;63.10
11239;DHT22;5677;48.488;13.436;2023-09-19T15:29:22;21.00;63.00
11239;DHT22;5677;48.488;13.436;2023-09-19T15:31:49;21.00;63.00
11239;DHT22;5677;48.488;13.436;2023-09-19T15:34:15;21.00;63.00
11239;DHT22;5677;48.488;13.436;2023-09-19T15:36:42;21.00;62.90
11239;DHT22;5677;48.488;13.436;2023-09-19T15:39:09;21.00;62.80
11239;DHT22;5677;48.488;13.436;2023-09-19T15:41:38;21.00;62.80
11239;DHT22;5677;48.488;13.436;2023-09-19T15:44:11;21.00;62.80
11239;DHT22;5677;48.488;13.436;2023-09-19T15:46:40;21.00;62.80
11239;DHT22;5677;48.488;13.436;2023-09-19T15:49:07;21.00;62.80
11239;DHT22;5677;48.488;13.436;2023-09-19T15:51:34;21.00;62.80
11239;DHT22;5677;48.488;13.436;2023-09-19T15:54:07;21.00;62.80
11239;DHT22;5677;48.488;13.436;2023-09-19T15:56:34;21.00;62.80
11239;DHT22;5677;48.488;13.436;2023-09-19T15:59:01;21.00;62.70
11239;DHT22;5677;48.488;13.436;2023-09-19T16:01:28;21.00;62.80
11239;DHT22;5677;48.488;13.436;2023-09-19T16:03:56;21.00;62.90